Texas Shootout - HAND INVENTORY

Station: HAND INVENTORY - T Race

Distance: 1 Miles

Release: 10-Jul-2017 07:30

Weather Release:    Arrival:

Wind at Release:     Wind at Arrival:

Temp at Release: °    Temp at Arrival: °

Lofts: 162

Birds: 1023

Clocked: 984

Good Luck to Everyone!
Drops Pos Breeder Pigeon Name Color Sex Ent Arrival Speed To Win Eligible
801 Liu Loft - NC 8887-AU17-LIU BB H 7 13:22:23.33 4.994 05:17:31 Yes
802 K & J Loft - OK 1730-AU17-VK BBWF C 5 13:22:35.30 4.992 05:17:39 Yes
803 Arandas Loft - TX 14359-AU17-ARPU BB H 3 13:22:48.94 4.988 05:17:56 Yes
804 Wessel Family Lofts - CA 1449-AU17-ARC BB C 4 13:23:01.64 4.985 05:18:09 Yes
805 Drama Queen Loft - TX 1280-AU17-GCI BC H 3 13:23:19.06 4.981 05:18:26 Yes
806 Cajun Express Loft - LA 10961-AU17-AA BB H 5 13:23:29.22 4.979 05:18:35 Yes
807 Sandstrom Brothers Loft - MN 0788-AU17-SBL BC C 5 13:23:41.24 4.976 05:18:47 Yes
808 Band Of Brothers - TX 0087-AU17-SHAL GRIZ C 6 13:23:54.69 4.973 05:19:00 Yes
809 Mlb Team - TX 2986-AU17-TEX BBSP H 5 13:24:06.74 4.970 05:19:13 Yes
810 Holleys Silver Star - TX 0932-AU17-DEN BB H 9 13:24:26.38 4.966 05:19:30 Yes
811 Zhenyuan Guo - SC 0688-AU17-GUO BC H 4 13:24:37.13 4.963 05:19:43 Yes
812 Chen Loft - PA 1082-AU17-TFC BC C 7 13:24:46.50 4.961 05:19:51 Yes
813 Neighbor Hood Bullies - TX 1000-AU17-ARPU DWFP H 10 13:25:01.69 4.957 05:20:09 Yes
814 Dream Union - DC 1122-IF17-SLP BB H 5 13:25:16.53 4.954 05:20:22 Yes
815 Holleys Silver Star - TX 0937-AU17-DEN BC H 10 13:25:30.02 4.951 05:20:34 Yes
816 Yendez Loft - TX 0092-AU17-YEND BBSP H 5 13:25:48.66 4.946 05:20:56 Yes
817 Vick Corso - LA 1285-AU17-CRSO BC H 6 13:25:52.81 4.945 05:21:00 Yes
818 Sandstrom Brothers Loft - MN 0790-AU17-SBL BC H 6 13:26:08.99 4.942 05:21:13 Yes
819 Dekeratry Loft - TX 7501-AU17-HOT DRZ C 5 13:26:23.24 4.938 05:21:31 Died
820 Bryan Maier - PA 7263-IF17-DVC BBWF C 3 13:26:34.24 4.936 05:21:39 Yes
821 New Orleans Boys - LA 0748-AU17-MET BC H 5 13:26:48.91 4.933 05:21:52 Yes
822 Casale/Miner - CA 1712-AU17-VG BCPD H 3 13:27:00.83 4.930 05:22:05 Yes
823 Milestone Loft - CA 0176-AU17-SD BB H 5 13:27:13.50 4.927 05:22:18 Yes
824 Lechuga Loft - TX 0008-MX17-LECH BB C 2 13:27:23.97 4.924 05:22:31 Yes
825 Tex-Mex Loft - TX 0653-AU17-NSL BB H 19 13:27:45.27 4.920 05:22:49 Yes
826 Elton Dinga - TX 12152-AU17-AA BC H 43 13:27:50.77 4.918 05:22:58 Yes
827 Barry Venn - WY 1977-AU17-VENN BB C 4 13:28:02.55 4.916 05:23:06 Yes
828 Dream Team - VT 0376-AU17-JCZL 35559x6801 BC H 11 13:28:12.81 4.913 05:23:19 Yes
829 Cuevas Classic - TX 0056-AU17-DAL Lonestar Lady BB H 3 13:28:24.30 4.911 05:23:28 Yes
830 Champ Camp - IN 0214-AU17-CAMP BCPD H 11 13:28:38.41 4.907 05:23:46 Yes
831 King Rps Loft - CA 1480-AU17-FOYS DC H 3 13:28:55.28 4.904 05:23:59 Yes
832 Kim Wong - VT 10892-AU17-ARPU BB C 5 13:28:56.95 4.903 05:24:03 Yes
833 Utaz Boys/ Jones - UT 1082-AU17-SLI BB H 4 13:29:15.75 4.899 05:24:21 Yes
834 Milestone Loft - CA 0170-AU17-SD BSPL H 6 13:29:21.08 4.898 05:24:25 Yes
835 Anderson, Aycock & Louie - AZ 1771-AU17-DEA BBWF H 6 13:29:30.91 4.895 05:24:39 Yes
836 Holleys Silver Star - TX 0942-AU17-DEN SIL H 11 13:29:50.44 4.891 05:24:56 Yes
837 Barry Venn - WY 1939-AU17-VENN BCPD H 5 13:29:57.59 4.889 05:25:05 Yes
838 Sandstrom Brothers Loft - MN 0808-AU17-SBL DCPD H 7 13:30:19.53 4.884 05:25:27 Yes
838 Dave Byer - CA 5716-AU17-ARPU BB H 7 13:30:20.97 4.884 05:25:27 Yes
840 Hines Family Loft - SD 7057-AU17-GPF BC H 5 13:30:47.44 4.878 05:25:54 Yes
840 Band Of Brothers - TX 0780-AU17-HOOK BB C 7 13:30:48.80 4.878 05:25:54 Yes
842 Da Dong - WI 0808-AU17-DONG BB H 9 13:31:09.95 4.873 05:26:16 Yes
842 Band Of Brothers - TX 0782-AU17-HOOK DC H 8 13:31:11.58 4.873 05:26:16 Yes
844 Abel Loft - CA 7558-AU17-HAN BB H 5 13:31:39.25 4.867 05:26:43 Yes
845 Drama Queen Loft - TX 1277-AU17-GCI BB H 4 13:31:40.70 4.866 05:26:47 Yes
846 Quest Syndicate/Any Given Day Loft - TX 16606-AU17-QS BB H 9 13:32:05.17 4.861 05:27:09 Yes
847 Shiloft - PA 0075-IF17-MIN BC C 8 13:32:14.49 4.859 05:27:18 Yes
848 Hillbilly Loft - TX 17642-AU17-AA BWFP H 7 13:32:32.75 4.855 05:27:36 Yes
849 Champ Camp - IN 0222-AU17-CAMP BC H 12 13:32:34.25 4.854 05:27:41 Yes
850 Arandas Loft - TX 14352-AU17-ARPU BB C 4 13:32:53.30 4.850 05:27:59 Yes
851 O & L De Vries - ON 2435-AU17-OL BB C 3 13:33:01.95 4.848 05:28:08 Yes
852 Steven Loft - TX 5865-AU17-ARPU BB H 5 13:33:25.03 4.843 05:28:30 Yes
853 Holleys Silver Star - TX 0933-AU17-DEN RC C 12 13:33:29.70 4.842 05:28:35 Yes
854 Baudy Loft - LA 1325-AU17-CRSO BC C 3 13:33:46.30 4.838 05:28:53 Died
855 Utaz Boys/ Jones - UT 1086-AU17-SLI BCWF C 5 13:33:54.22 4.836 05:29:02 Yes
856 Double B S Loft - CA 0601-AU17-AUB BC C 2 13:34:18.63 4.831 05:29:24 Yes
857 Charlie Barbiere - NJ 1954-IF17-BSC BB H 2 13:34:25.59 4.830 05:29:29 Yes
858 Tulsa Racers - OK 0767-AU17-TULS BBWF H 3 13:34:47.77 4.825 05:29:51 Yes
859 Carroll Hoover - PA 1131-IF17-RLPC MSPL C 4 13:34:53.45 4.823 05:30:01 Yes
860 Zhenyuan Guo - SC 0686-AU17-GUO BC H 5 13:35:05.17 4.821 05:30:10 Yes
861 777 Victory Loft - NY 0154-AU17-NYLN BB C 4 13:35:24.27 4.817 05:30:28 Yes
862 Timberline Speed Loft - TX 0821-AU17-TSL BBWF C 3 13:35:33.66 4.815 05:30:37 Died
863 Hugo Family Loft - IL 93086-IF17-E BC H 4 13:35:52.74 4.810 05:31:00 Yes
864 Wolf Den & Family Loft - IL 0044-AU17-WOLF BBPD H 5 13:36:02.70 4.808 05:31:09 Yes
865 Skylinerpl.Com - UT 0964-AU17-UVI BBWF H 4 13:36:19.14 4.805 05:31:23 Yes
866 Two Cousins - LA 3061-AU17-BYOU BBWF C 4 13:36:33.52 4.801 05:31:41 Died
867 Quest Syndicate - TX 16059-AU17-QS BC H 4 13:36:54.41 4.797 05:31:59 Yes
868 Shiloft - PA 0061-IF17-MIN BC H 9 13:37:03.03 4.795 05:32:08 Yes
869 Ledet-Gutrz - LA 17491-AU17-LG BC C 4 13:37:12.14 4.793 05:32:18 Yes
870 Armando & Rameriz Loft - TX 0151-AU17-DAL BB H 7 13:37:29.94 4.789 05:32:36 Yes
871 Cuevas Classic - TX 0030-AU17-DAL Dirty Face SIL C 4 13:37:45.49 4.786 05:32:50 Yes
872 Franco Loft - TX 0745-AU17-DEN BB H 5 13:37:47.00 4.785 05:32:54 Yes
873 Casale/Miner - CA 1751-AU17-VG BBWF H 4 13:38:11.81 4.780 05:33:18 Yes
874 Champ Camp - IN 0219-AU17-CAMP BB H 13 13:38:16.42 4.779 05:33:22 Yes
875 Charlie Barbiere - NJ 1948-IF17-BSC BB H 3 13:38:33.75 4.775 05:33:41 Yes
876 Chen Loft - PA 0128-AU17-TFC BB C 8 13:38:43.00 4.773 05:33:50 Yes
877 A D L Loft - IL 0195-AU17-ADL LC C 10 13:39:02.47 4.769 05:34:08 Yes
878 Flying D / Matt Mitchell - TX 0193-AU17-FLYD BBWF H 4 13:39:06.55 4.768 05:34:13 Yes
879 Relax & Barger - CA 71958-AU17-MAN CWFP C 5 13:39:35.34 4.762 05:34:41 Yes
880 777 Victory Loft - NY 0132-AU17-NYLN BWFP H 5 13:39:41.52 4.761 05:34:46 Yes
881 French Camp Connection - CA 71988-AU17-MAN BCWF H 5 13:40:14.77 4.754 05:35:18 Yes
882 Nemelka Racing Pigeon Loft - UT 7136-AU17-NRPL Magician x 1106 BC H 4 13:40:17.53 4.753 05:35:23 Yes
883 Tou Loft - TN 0060-AU17-TOU BB H 4 13:40:42.75 4.748 05:35:46 Yes
884 Richard Callahan - MO 37949-AU17-AA DC C 9 13:40:48.45 4.746 05:35:56 Died
885 O & L De Vries - ON 2423-AU17-OL BC H 4 13:41:10.05 4.742 05:36:15 Yes
886 Nemelka Racing Pigeon Loft - UT 7141-AU17-NRPL 4010 x Miss Beaut BC H 5 13:41:16.25 4.740 05:36:24 Yes
887 O & L De Vries - ON 2430-AU17-OL BB C 5 13:41:30.50 4.737 05:36:38 Yes
888 T & T Lofts - TX 2290-AU17-TEX BC H 6 13:41:39.08 4.736 05:36:43 Died
889 Zhenyuan Guo - SC 0687-AU17-GUO BC H 6 13:41:56.06 4.732 05:37:02 Yes
890 Big Andy - FL 0285-AU17-ANDY BB H 3 13:42:11.70 4.729 05:37:16 Yes
891 Taj Syndicate - TX 0025-AU17-EISN DC C 6 13:42:29.63 4.725 05:37:35 Yes
892 Elton Dinga - TX 12117-AU17-AA DCWF H 44 13:42:39.36 4.723 05:37:44 Yes
893 Baptista - IL 0022-AU17-BAPT BWFP H 4 13:42:51.70 4.720 05:37:58 Yes
894 Vick Corso - LA 1300-AU17-CRSO BC H 7 13:43:23.30 4.714 05:38:27 Yes
895 Arandas Loft - TX 14362-AU17-ARPU BC C 5 13:43:47.17 4.709 05:38:51 Yes
896 Tou Loft - TN 0039-AU17-TOU BB C 5 13:43:54.49 4.707 05:39:00 Yes
897 Little Reata Loft - TX 17344-AU17-JETT BC H 9 13:44:23.64 4.701 05:39:29 Yes
898 Two Cousins - LA 3075-AU17-BYOU DC H 5 13:44:42.95 4.697 05:39:48 Yes
899 Y Mtn Loft - TN 0163-AU17-ARPU BB H 5 13:45:18.38 4.690 05:40:21 Yes
900 Barry Venn - WY 1987-AU17-VENN BB C 6 13:45:27.53 4.688 05:40:31 Yes

There are 1003 bird records

Note: These Race Results are unofficial and subject to change until verified by the Race Committee and declared final.